AZA117 LIML-LPMA
Flight info
| Callsign | AZA117 |
|---|---|
| Flight time | N/A |
| Altitude | 33000 |
| Route | LAGEN DCT BORDI/N0453F350 DCT PADKO UM984 DIVKO G7 MAMES M984 BISBA N975 CJN N10 CRISA DCT LASIB DCT LATRU DCT SUBAL DCT GIKAR DCT LIDRO |
| Aircraft | A320/M-SDE3FGHIRWY/LB1 |
Departure
| Time | N/A |
|---|---|
| Airport | Milano Linate Airport (LIML) |
Arrival
| Time | 2026-05-03 23:02 |
|---|---|
| Airport | Cristiano Ronaldo International Airport (LPMA) |
| Time | Latitude | Longitude | Altitude | Speed | Heading |
|---|---|---|---|---|---|
| 2026-05-03 20:15 | 41.05200 | 0.03401 | 34985 ft | 400 kts | 258° |
| 2026-05-03 20:15 | 41.04398 | -0.02627 | 34993 ft | 400 kts | 258° |
| 2026-05-03 20:16 | 41.03426 | -0.09892 | 34989 ft | 401 kts | 258° |
| 2026-05-03 20:16 | 41.02450 | -0.17160 | 34988 ft | 401 kts | 258° |
| 2026-05-03 20:17 | 41.01470 | -0.24432 | 34985 ft | 401 kts | 258° |
| 2026-05-03 20:17 | 41.00102 | -0.31548 | 34988 ft | 399 kts | 249° |
| 2026-05-03 20:18 | 40.98234 | -0.38465 | 34987 ft | 399 kts | 249° |
| 2026-05-03 20:18 | 40.96361 | -0.45379 | 34988 ft | 399 kts | 249° |
| 2026-05-03 20:19 | 40.94499 | -0.52253 | 34992 ft | 399 kts | 249° |
| 2026-05-03 20:19 | 40.92623 | -0.59163 | 34995 ft | 399 kts | 249° |
| 2026-05-03 20:20 | 40.90737 | -0.66069 | 34997 ft | 399 kts | 249° |
| 2026-05-03 20:20 | 40.88846 | -0.72966 | 35000 ft | 399 kts | 249° |
| 2026-05-03 20:21 | 40.86955 | -0.79852 | 35023 ft | 398 kts | 249° |
| 2026-05-03 20:21 | 40.85061 | -0.86718 | 35023 ft | 398 kts | 249° |
| 2026-05-03 20:22 | 40.83155 | -0.93579 | 35024 ft | 398 kts | 249° |
| 2026-05-03 20:22 | 40.81250 | -1.00434 | 35023 ft | 398 kts | 249° |
| 2026-05-03 20:23 | 40.79347 | -1.07287 | 35033 ft | 398 kts | 249° |
| 2026-05-03 20:23 | 40.77444 | -1.14137 | 35031 ft | 397 kts | 249° |
| 2026-05-03 20:24 | 40.75530 | -1.20978 | 35032 ft | 397 kts | 249° |
| 2026-05-03 20:24 | 40.73613 | -1.27820 | 35035 ft | 397 kts | 249° |
| 2026-05-03 20:25 | 40.71694 | -1.34647 | 35033 ft | 397 kts | 247° |
| 2026-05-03 20:25 | 40.70410 | -1.37855 | 35030 ft | 396 kts | 236° |
| 2026-05-03 20:25 | 40.68845 | -1.40841 | 35030 ft | 396 kts | 236° |
| 2026-05-03 20:26 | 40.65700 | -1.46806 | 35030 ft | 396 kts | 236° |
| 2026-05-03 20:26 | 40.62544 | -1.52759 | 35046 ft | 396 kts | 235° |
| 2026-05-03 20:27 | 40.59386 | -1.58692 | 35051 ft | 395 kts | 236° |
| 2026-05-03 20:27 | 40.56232 | -1.64607 | 35046 ft | 394 kts | 236° |
| 2026-05-03 20:28 | 40.53113 | -1.70465 | 35045 ft | 394 kts | 236° |
| 2026-05-03 20:28 | 40.49969 | -1.76357 | 35042 ft | 393 kts | 236° |
| 2026-05-03 20:29 | 40.46828 | -1.82234 | 35041 ft | 393 kts | 236° |
| 2026-05-03 20:29 | 40.43687 | -1.88098 | 35028 ft | 392 kts | 236° |
| 2026-05-03 20:30 | 40.40541 | -1.93958 | 35026 ft | 393 kts | 236° |
| 2026-05-03 20:30 | 40.37388 | -1.99811 | 35023 ft | 393 kts | 236° |
| 2026-05-03 20:31 | 40.34235 | -2.05664 | 35027 ft | 393 kts | 235° |
| 2026-05-03 20:31 | 40.31070 | -2.11518 | 35028 ft | 393 kts | 235° |
| 2026-05-03 20:32 | 40.27903 | -2.17367 | 35021 ft | 393 kts | 235° |
| 2026-05-03 20:32 | 40.24737 | -2.23192 | 35020 ft | 393 kts | 235° |
| 2026-05-03 20:33 | 40.21569 | -2.29031 | 34998 ft | 393 kts | 236° |
| 2026-05-03 20:33 | 40.18411 | -2.34849 | 35022 ft | 392 kts | 236° |
| 2026-05-03 20:34 | 40.15270 | -2.40607 | 35023 ft | 391 kts | 236° |
| 2026-05-03 20:34 | 40.12107 | -2.46379 | 35020 ft | 390 kts | 236° |
| 2026-05-03 20:35 | 40.08951 | -2.52151 | 35016 ft | 390 kts | 236° |
| 2026-05-03 20:35 | 40.05799 | -2.57907 | 35014 ft | 390 kts | 236° |
| 2026-05-03 20:36 | 40.02644 | -2.63657 | 35008 ft | 390 kts | 236° |
| 2026-05-03 20:36 | 39.99481 | -2.69404 | 35021 ft | 389 kts | 236° |
| 2026-05-03 20:37 | 39.96329 | -2.75129 | 35021 ft | 388 kts | 236° |
| 2026-05-03 20:37 | 39.93181 | -2.80828 | 35022 ft | 387 kts | 236° |
| 2026-05-03 20:38 | 39.90053 | -2.86483 | 35021 ft | 387 kts | 236° |
| 2026-05-03 20:38 | 39.86910 | -2.92161 | 35018 ft | 386 kts | 236° |
| 2026-05-03 20:39 | 39.83764 | -2.97826 | 35017 ft | 386 kts | 235° |
| 2026-05-03 20:39 | 39.80618 | -3.03475 | 35012 ft | 386 kts | 235° |
| 2026-05-03 20:40 | 39.77475 | -3.09117 | 35029 ft | 385 kts | 235° |
| 2026-05-03 20:40 | 39.74337 | -3.14737 | 34998 ft | 384 kts | 236° |
| 2026-05-03 20:41 | 39.71203 | -3.20343 | 35006 ft | 383 kts | 236° |
| 2026-05-03 20:41 | 39.68073 | -3.25938 | 35004 ft | 383 kts | 236° |
| 2026-05-03 20:42 | 39.64938 | -3.31523 | 35004 ft | 382 kts | 236° |
| 2026-05-03 20:42 | 39.61810 | -3.37094 | 35003 ft | 382 kts | 236° |
| 2026-05-03 20:43 | 39.58675 | -3.42660 | 35003 ft | 382 kts | 236° |
| 2026-05-03 20:43 | 39.55541 | -3.48219 | 35024 ft | 382 kts | 235° |
| 2026-05-03 20:44 | 39.52408 | -3.53769 | 34989 ft | 381 kts | 236° |
| 2026-05-03 20:44 | 39.49275 | -3.59301 | 35001 ft | 380 kts | 236° |
| 2026-05-03 20:45 | 39.46152 | -3.64809 | 35006 ft | 380 kts | 236° |
| 2026-05-03 20:45 | 39.43022 | -3.70314 | 35009 ft | 379 kts | 235° |
| 2026-05-03 20:46 | 39.39892 | -3.75808 | 35010 ft | 379 kts | 235° |
| 2026-05-03 20:46 | 39.36784 | -3.81255 | 35010 ft | 379 kts | 235° |
| 2026-05-03 20:47 | 39.33656 | -3.86740 | 35020 ft | 379 kts | 235° |
| 2026-05-03 20:47 | 39.30525 | -3.92210 | 35019 ft | 379 kts | 235° |
| 2026-05-03 20:48 | 39.27389 | -3.97677 | 34994 ft | 378 kts | 235° |
| 2026-05-03 20:48 | 39.24260 | -4.03132 | 34997 ft | 378 kts | 235° |
| 2026-05-03 20:49 | 39.21126 | -4.08584 | 35003 ft | 378 kts | 235° |
| 2026-05-03 20:49 | 39.17991 | -4.14028 | 35007 ft | 378 kts | 235° |
| 2026-05-03 20:50 | 39.14856 | -4.19467 | 35007 ft | 378 kts | 235° |
| 2026-05-03 20:50 | 39.11719 | -4.24897 | 35006 ft | 378 kts | 235° |
| 2026-05-03 20:51 | 39.08575 | -4.30324 | 35011 ft | 378 kts | 235° |
| 2026-05-03 20:51 | 39.05431 | -4.35744 | 35010 ft | 378 kts | 235° |
| 2026-05-03 20:52 | 39.02287 | -4.41157 | 34978 ft | 378 kts | 235° |
| 2026-05-03 20:52 | 38.99161 | -4.46536 | 34981 ft | 377 kts | 235° |
| 2026-05-03 20:53 | 38.96017 | -4.51945 | 34992 ft | 377 kts | 235° |
| 2026-05-03 20:53 | 38.93226 | -4.57613 | 34999 ft | 375 kts | 248° |
| 2026-05-03 20:54 | 38.91235 | -4.63799 | 35006 ft | 375 kts | 247° |
| 2026-05-03 20:54 | 38.88228 | -4.73058 | 34995 ft | 375 kts | 247° |
| 2026-05-03 20:55 | 38.86219 | -4.79232 | 34990 ft | 375 kts | 247° |
| 2026-05-03 20:55 | 38.84213 | -4.85401 | 34989 ft | 375 kts | 247° |
| 2026-05-03 20:56 | 38.82203 | -4.91567 | 34993 ft | 375 kts | 247° |
| 2026-05-03 20:56 | 38.80189 | -4.97724 | 35021 ft | 374 kts | 247° |
| 2026-05-03 20:57 | 38.78174 | -5.03865 | 34985 ft | 373 kts | 247° |
| 2026-05-03 20:57 | 38.76160 | -5.10001 | 34988 ft | 373 kts | 247° |
| 2026-05-03 20:58 | 38.74164 | -5.16090 | 34988 ft | 372 kts | 247° |
| 2026-05-03 20:58 | 38.72152 | -5.22200 | 34988 ft | 372 kts | 247° |
| 2026-05-03 20:59 | 38.70123 | -5.28298 | 34997 ft | 372 kts | 247° |
| 2026-05-03 20:59 | 38.68101 | -5.34389 | 35005 ft | 372 kts | 247° |
| 2026-05-03 21:00 | 38.66751 | -5.38466 | 34998 ft | 372 kts | 247° |
| 2026-05-03 21:00 | 38.64062 | -5.46564 | 35008 ft | 371 kts | 247° |
| 2026-05-03 21:01 | 38.62029 | -5.52646 | 34996 ft | 372 kts | 247° |
| 2026-05-03 21:01 | 38.60006 | -5.58723 | 34998 ft | 371 kts | 247° |
| 2026-05-03 21:02 | 38.57986 | -5.64759 | 35005 ft | 372 kts | 247° |
| 2026-05-03 21:02 | 38.55950 | -5.70833 | 35000 ft | 372 kts | 247° |
| 2026-05-03 21:03 | 38.53915 | -5.76889 | 35021 ft | 371 kts | 246° |
| 2026-05-03 21:03 | 38.52223 | -5.81914 | 35018 ft | 370 kts | 246° |
| 2026-05-03 21:04 | 38.50188 | -5.87945 | 34986 ft | 370 kts | 246° |
| 2026-05-03 21:04 | 38.48146 | -5.93974 | 34997 ft | 369 kts | 246° |
| 2026-05-03 21:05 | 38.46111 | -5.99989 | 35004 ft | 369 kts | 246° |
| 2026-05-03 21:05 | 38.44068 | -6.05999 | 35002 ft | 369 kts | 246° |
| 2026-05-03 21:06 | 38.42025 | -6.12000 | 35019 ft | 369 kts | 246° |
| 2026-05-03 21:06 | 38.39984 | -6.17988 | 35017 ft | 368 kts | 246° |
| 2026-05-03 21:07 | 38.37945 | -6.23960 | 35023 ft | 367 kts | 246° |
| 2026-05-03 21:07 | 38.35903 | -6.29929 | 35018 ft | 367 kts | 246° |
| 2026-05-03 21:08 | 38.33857 | -6.35892 | 35015 ft | 367 kts | 246° |
| 2026-05-03 21:08 | 38.31812 | -6.41846 | 35016 ft | 367 kts | 246° |
| 2026-05-03 21:09 | 38.29758 | -6.47798 | 35027 ft | 367 kts | 246° |
| 2026-05-03 21:09 | 38.27699 | -6.53747 | 35028 ft | 367 kts | 246° |
| 2026-05-03 21:10 | 38.25642 | -6.59697 | 35030 ft | 367 kts | 246° |
| 2026-05-03 21:10 | 38.23587 | -6.65638 | 35026 ft | 367 kts | 246° |
| 2026-05-03 21:11 | 38.21525 | -6.71578 | 35030 ft | 367 kts | 246° |
| 2026-05-03 21:11 | 38.19459 | -6.77516 | 35029 ft | 367 kts | 246° |
| 2026-05-03 21:12 | 38.17393 | -6.83452 | 35029 ft | 367 kts | 246° |
| 2026-05-03 21:12 | 38.15323 | -6.89383 | 35041 ft | 367 kts | 246° |
| 2026-05-03 21:13 | 38.13249 | -6.95299 | 35042 ft | 367 kts | 246° |
| 2026-05-03 21:13 | 38.11171 | -7.01212 | 35041 ft | 367 kts | 246° |
| 2026-05-03 21:14 | 38.09094 | -7.07116 | 35040 ft | 366 kts | 246° |
| 2026-05-03 21:14 | 38.07016 | -7.13024 | 35037 ft | 366 kts | 246° |
| 2026-05-03 21:15 | 38.04933 | -7.18931 | 35047 ft | 366 kts | 246° |
| 2026-05-03 21:15 | 38.02856 | -7.24787 | 35062 ft | 366 kts | 246° |
| 2026-05-03 21:16 | 38.00752 | -7.30675 | 35066 ft | 366 kts | 246° |
| 2026-05-03 21:16 | 37.98644 | -7.36562 | 35066 ft | 366 kts | 246° |
| 2026-05-03 21:17 | 37.96878 | -7.41479 | 35066 ft | 366 kts | 246° |
| 2026-05-03 21:17 | 37.94419 | -7.48303 | 35040 ft | 366 kts | 246° |
| 2026-05-03 21:18 | 37.92311 | -7.54169 | 35051 ft | 366 kts | 246° |
| 2026-05-03 21:18 | 37.90198 | -7.60030 | 35067 ft | 366 kts | 246° |
| 2026-05-03 21:19 | 37.88080 | -7.65886 | 35081 ft | 366 kts | 246° |
| 2026-05-03 21:19 | 37.85961 | -7.71733 | 35082 ft | 365 kts | 246° |
| 2026-05-03 21:20 | 37.83841 | -7.77573 | 35083 ft | 365 kts | 246° |
| 2026-05-03 21:20 | 37.81718 | -7.83404 | 35083 ft | 365 kts | 245° |
| 2026-05-03 21:21 | 37.79593 | -7.89227 | 35081 ft | 365 kts | 245° |
| 2026-05-03 21:21 | 37.77468 | -7.95045 | 35081 ft | 364 kts | 245° |
| 2026-05-03 21:22 | 37.75357 | -8.00819 | 35078 ft | 364 kts | 245° |
| 2026-05-03 21:22 | 37.73233 | -8.06618 | 35077 ft | 363 kts | 245° |
| 2026-05-03 21:23 | 37.71104 | -8.12410 | 35080 ft | 364 kts | 245° |
| 2026-05-03 21:23 | 37.68970 | -8.18201 | 35080 ft | 364 kts | 245° |
| 2026-05-03 21:24 | 37.66834 | -8.23995 | 35084 ft | 364 kts | 245° |
| 2026-05-03 21:24 | 37.64692 | -8.29784 | 35064 ft | 364 kts | 245° |
| 2026-05-03 21:25 | 37.62556 | -8.35574 | 35080 ft | 364 kts | 245° |
| 2026-05-03 21:25 | 37.60413 | -8.41364 | 35082 ft | 364 kts | 245° |
| 2026-05-03 21:26 | 37.58264 | -8.47155 | 35082 ft | 365 kts | 245° |
| 2026-05-03 21:26 | 37.56119 | -8.52911 | 35086 ft | 365 kts | 245° |
| 2026-05-03 21:27 | 37.53961 | -8.58694 | 35092 ft | 365 kts | 245° |
| 2026-05-03 21:27 | 37.51798 | -8.64477 | 35088 ft | 364 kts | 245° |
| 2026-05-03 21:28 | 37.49640 | -8.70251 | 35089 ft | 365 kts | 245° |
| 2026-05-03 21:28 | 37.47478 | -8.76030 | 35100 ft | 364 kts | 245° |
| 2026-05-03 21:29 | 37.45312 | -8.81795 | 35108 ft | 364 kts | 245° |
| 2026-05-03 21:29 | 37.43139 | -8.87543 | 35107 ft | 364 kts | 245° |
| 2026-05-03 21:30 | 37.40969 | -8.93293 | 35103 ft | 364 kts | 245° |
| 2026-05-03 21:30 | 37.38798 | -8.99044 | 35104 ft | 364 kts | 245° |
| 2026-05-03 21:31 | 37.36624 | -9.04794 | 35075 ft | 364 kts | 245° |
| 2026-05-03 21:31 | 37.34462 | -9.10498 | 35092 ft | 364 kts | 245° |
| 2026-05-03 21:32 | 37.32283 | -9.16239 | 35100 ft | 364 kts | 245° |
| 2026-05-03 21:32 | 37.30099 | -9.21972 | 35093 ft | 364 kts | 245° |
| 2026-05-03 21:33 | 37.27904 | -9.27713 | 35103 ft | 364 kts | 245° |
| 2026-05-03 21:33 | 37.25712 | -9.33451 | 35103 ft | 364 kts | 245° |
| 2026-05-03 21:34 | 37.23519 | -9.39191 | 35106 ft | 364 kts | 245° |
| 2026-05-03 21:34 | 37.21322 | -9.44928 | 35110 ft | 364 kts | 245° |
| 2026-05-03 21:35 | 37.19143 | -9.50613 | 35110 ft | 364 kts | 245° |
| 2026-05-03 21:35 | 37.16928 | -9.56370 | 35113 ft | 364 kts | 245° |
| 2026-05-03 21:36 | 37.14734 | -9.62053 | 35115 ft | 364 kts | 245° |
| 2026-05-03 21:36 | 37.12526 | -9.67771 | 35109 ft | 365 kts | 245° |
| 2026-05-03 21:37 | 37.10308 | -9.73491 | 35114 ft | 365 kts | 245° |
| 2026-05-03 21:37 | 37.08092 | -9.79214 | 35123 ft | 365 kts | 245° |
| 2026-05-03 21:38 | 37.05872 | -9.84932 | 35101 ft | 365 kts | 245° |
| 2026-05-03 21:38 | 37.03649 | -9.90638 | 35115 ft | 365 kts | 245° |
| 2026-05-03 21:39 | 37.01426 | -9.96338 | 35119 ft | 364 kts | 245° |
| 2026-05-03 21:39 | 36.99301 | -10.02094 | 35123 ft | 364 kts | 247° |
| 2026-05-03 21:40 | 36.97304 | -10.07916 | 35019 ft | 364 kts | 248° |
| 2026-05-03 21:40 | 36.95429 | -10.13737 | 34970 ft | 363 kts | 249° |
| 2026-05-03 21:41 | 36.93646 | -10.19647 | 35007 ft | 363 kts | 250° |
| 2026-05-03 21:41 | 36.91968 | -10.25606 | 35144 ft | 363 kts | 251° |
| 2026-05-03 21:42 | 36.91170 | -10.28600 | 35248 ft | 363 kts | 252° |
| 2026-05-03 21:42 | 36.90400 | -10.31601 | 35368 ft | 363 kts | 252° |
| 2026-05-03 21:42 | 36.89654 | -10.34620 | 35508 ft | 363 kts | 253° |
| 2026-05-03 21:42 | 36.88937 | -10.37642 | 35669 ft | 363 kts | 253° |
| 2026-05-03 21:43 | 36.88257 | -10.40680 | 35803 ft | 363 kts | 255° |
| 2026-05-03 21:43 | 36.87618 | -10.43782 | 34309 ft | 385 kts | 255° |
| 2026-05-03 21:43 | 36.86966 | -10.47005 | 34065 ft | 374 kts | 251° |
| 2026-05-03 21:43 | 36.85728 | -10.49815 | 34288 ft | 372 kts | 233° |
| 2026-05-03 21:44 | 36.82065 | -10.54486 | 34651 ft | 376 kts | 230° |
| 2026-05-03 21:44 | 36.80239 | -10.56805 | 35004 ft | 372 kts | 233° |
| 2026-05-03 21:44 | 36.78824 | -10.59459 | 35106 ft | 366 kts | 246° |
| 2026-05-03 21:45 | 36.76734 | -10.65233 | 35128 ft | 365 kts | 247° |
| 2026-05-03 21:45 | 36.74650 | -10.71013 | 35111 ft | 365 kts | 247° |
| 2026-05-03 21:46 | 36.72561 | -10.76778 | 35130 ft | 365 kts | 247° |
| 2026-05-03 21:46 | 36.70471 | -10.82539 | 35133 ft | 365 kts | 247° |
| 2026-05-03 21:47 | 36.68378 | -10.88296 | 35140 ft | 365 kts | 247° |
| 2026-05-03 21:47 | 36.66278 | -10.94044 | 35140 ft | 365 kts | 247° |
| 2026-05-03 21:48 | 36.64165 | -10.99791 | 35127 ft | 365 kts | 247° |
| 2026-05-03 21:48 | 36.62059 | -11.05541 | 35130 ft | 365 kts | 247° |
| 2026-05-03 21:49 | 36.59953 | -11.11295 | 35138 ft | 366 kts | 247° |
| 2026-05-03 21:49 | 36.57856 | -11.17018 | 35143 ft | 365 kts | 247° |
| 2026-05-03 21:50 | 36.55739 | -11.22763 | 35142 ft | 365 kts | 247° |
| 2026-05-03 21:50 | 36.53619 | -11.28513 | 35141 ft | 365 kts | 247° |
| 2026-05-03 21:51 | 36.51850 | -11.33279 | 35154 ft | 365 kts | 247° |
| 2026-05-03 21:51 | 36.49725 | -11.39019 | 35143 ft | 366 kts | 247° |
| 2026-05-03 21:52 | 36.47596 | -11.44763 | 35141 ft | 366 kts | 247° |
| 2026-05-03 21:52 | 36.45458 | -11.50496 | 35137 ft | 366 kts | 247° |
| 2026-05-03 21:53 | 36.43320 | -11.56238 | 35133 ft | 366 kts | 247° |
| 2026-05-03 21:53 | 36.41186 | -11.61985 | 35118 ft | 367 kts | 247° |
| 2026-05-03 21:54 | 36.39042 | -11.67730 | 35127 ft | 366 kts | 247° |
| 2026-05-03 21:54 | 36.36893 | -11.73463 | 35131 ft | 366 kts | 247° |
| 2026-05-03 21:55 | 36.34750 | -11.79154 | 35140 ft | 366 kts | 247° |
| 2026-05-03 21:55 | 36.32598 | -11.84883 | 35143 ft | 367 kts | 247° |
| 2026-05-03 21:56 | 36.30443 | -11.90618 | 35148 ft | 367 kts | 247° |
| 2026-05-03 21:56 | 36.28284 | -11.96349 | 35152 ft | 367 kts | 247° |
| 2026-05-03 21:57 | 36.26120 | -12.02076 | 35156 ft | 367 kts | 247° |
| 2026-05-03 21:57 | 36.23957 | -12.07799 | 35149 ft | 367 kts | 247° |
| 2026-05-03 21:58 | 36.21781 | -12.13523 | 35149 ft | 367 kts | 247° |
| 2026-05-03 21:58 | 36.19602 | -12.19244 | 35151 ft | 367 kts | 247° |
| 2026-05-03 21:59 | 36.17431 | -12.24962 | 35150 ft | 367 kts | 247° |
| 2026-05-03 21:59 | 36.15251 | -12.30686 | 35151 ft | 367 kts | 247° |
| 2026-05-03 22:00 | 36.13066 | -12.36401 | 35154 ft | 367 kts | 247° |
| 2026-05-03 22:00 | 36.10886 | -12.42112 | 35160 ft | 367 kts | 247° |
| 2026-05-03 22:01 | 36.08699 | -12.47820 | 35114 ft | 367 kts | 246° |
| 2026-05-03 22:01 | 36.06518 | -12.53489 | 35127 ft | 368 kts | 246° |
| 2026-05-03 22:02 | 36.03642 | -12.58795 | 35132 ft | 373 kts | 234° |
| 2026-05-03 22:02 | 36.00348 | -12.63697 | 35139 ft | 373 kts | 234° |
| 2026-05-03 22:03 | 35.97026 | -12.68636 | 35144 ft | 374 kts | 234° |
| 2026-05-03 22:03 | 35.93693 | -12.73568 | 35148 ft | 374 kts | 234° |
| 2026-05-03 22:04 | 35.90360 | -12.78506 | 35148 ft | 374 kts | 234° |
| 2026-05-03 22:04 | 35.87026 | -12.83457 | 35151 ft | 375 kts | 234° |
| 2026-05-03 22:05 | 35.83681 | -12.88395 | 35152 ft | 376 kts | 234° |
| 2026-05-03 22:05 | 35.80330 | -12.93334 | 35151 ft | 376 kts | 234° |
| 2026-05-03 22:06 | 35.76981 | -12.98278 | 35129 ft | 376 kts | 234° |
| 2026-05-03 22:06 | 35.73630 | -13.03233 | 35138 ft | 377 kts | 234° |
| 2026-05-03 22:07 | 35.70257 | -13.08181 | 35145 ft | 377 kts | 234° |
| 2026-05-03 22:07 | 35.66913 | -13.13084 | 35149 ft | 377 kts | 234° |
| 2026-05-03 22:08 | 35.63543 | -13.18025 | 35140 ft | 377 kts | 234° |
| 2026-05-03 22:08 | 35.60167 | -13.22972 | 35154 ft | 378 kts | 234° |
| 2026-05-03 22:09 | 35.56781 | -13.27916 | 35149 ft | 378 kts | 234° |
| 2026-05-03 22:10 | 35.51693 | -13.35333 | 35157 ft | 378 kts | 234° |
| 2026-05-03 22:10 | 35.48306 | -13.40279 | 35128 ft | 379 kts | 234° |
| 2026-05-03 22:11 | 35.44909 | -13.45215 | 35141 ft | 379 kts | 233° |
| 2026-05-03 22:11 | 35.41505 | -13.50153 | 35136 ft | 379 kts | 233° |
| 2026-05-03 22:12 | 35.38098 | -13.55104 | 35142 ft | 380 kts | 233° |
| 2026-05-03 22:12 | 35.34682 | -13.60048 | 35147 ft | 380 kts | 233° |
| 2026-05-03 22:13 | 35.31282 | -13.64963 | 35152 ft | 380 kts | 233° |
| 2026-05-03 22:13 | 35.27863 | -13.69906 | 35156 ft | 380 kts | 233° |
| 2026-05-03 22:14 | 35.24442 | -13.74846 | 35160 ft | 381 kts | 233° |
| 2026-05-03 22:14 | 35.20989 | -13.79818 | 35166 ft | 381 kts | 233° |
| 2026-05-03 22:15 | 35.17580 | -13.84715 | 35165 ft | 381 kts | 233° |
| 2026-05-03 22:15 | 35.14144 | -13.89641 | 35161 ft | 381 kts | 233° |
| 2026-05-03 22:16 | 35.10699 | -13.94573 | 35156 ft | 382 kts | 233° |
| 2026-05-03 22:16 | 35.07251 | -13.99506 | 35154 ft | 382 kts | 233° |
| 2026-05-03 22:17 | 35.03797 | -14.04438 | 35154 ft | 382 kts | 233° |
| 2026-05-03 22:17 | 35.00344 | -14.09376 | 35152 ft | 382 kts | 233° |
| 2026-05-03 22:18 | 34.96891 | -14.14312 | 35154 ft | 383 kts | 233° |
| 2026-05-03 22:18 | 34.93428 | -14.19244 | 35156 ft | 383 kts | 233° |
| 2026-05-03 22:19 | 34.89962 | -14.24166 | 35123 ft | 383 kts | 233° |
| 2026-05-03 22:19 | 34.86496 | -14.29086 | 35135 ft | 382 kts | 233° |
| 2026-05-03 22:20 | 34.83051 | -14.33969 | 35143 ft | 382 kts | 233° |
| 2026-05-03 22:20 | 34.79582 | -14.38870 | 35145 ft | 382 kts | 233° |
| 2026-05-03 22:21 | 34.76124 | -14.43773 | 35150 ft | 382 kts | 233° |
| 2026-05-03 22:21 | 34.72656 | -14.48673 | 35151 ft | 382 kts | 233° |
| 2026-05-03 22:22 | 34.69175 | -14.53563 | 35152 ft | 382 kts | 233° |
| 2026-05-03 22:22 | 34.65700 | -14.58447 | 35150 ft | 382 kts | 233° |
| 2026-05-03 22:23 | 34.62220 | -14.63347 | 35145 ft | 383 kts | 233° |
| 2026-05-03 22:23 | 34.58741 | -14.68229 | 35140 ft | 381 kts | 233° |
| 2026-05-03 22:24 | 34.55296 | -14.73056 | 35153 ft | 380 kts | 233° |
| 2026-05-03 22:24 | 34.51831 | -14.77899 | 35155 ft | 380 kts | 233° |
| 2026-05-03 22:25 | 34.48372 | -14.82737 | 35156 ft | 380 kts | 233° |
| 2026-05-03 22:25 | 34.44903 | -14.87583 | 35160 ft | 380 kts | 233° |
| 2026-05-03 22:26 | 34.41433 | -14.92419 | 35163 ft | 380 kts | 233° |
| 2026-05-03 22:26 | 34.37966 | -14.97243 | 35159 ft | 380 kts | 233° |
| 2026-05-03 22:27 | 34.34521 | -15.02049 | 35152 ft | 380 kts | 233° |
| 2026-05-03 22:27 | 34.31048 | -15.06871 | 35148 ft | 380 kts | 233° |
| 2026-05-03 22:28 | 34.27574 | -15.11691 | 35120 ft | 380 kts | 232° |
| 2026-05-03 22:28 | 34.24099 | -15.16498 | 35129 ft | 379 kts | 232° |
| 2026-05-03 22:29 | 34.20627 | -15.21299 | 35135 ft | 379 kts | 232° |
| 2026-05-03 22:29 | 34.17148 | -15.26090 | 35135 ft | 379 kts | 232° |
| 2026-05-03 22:30 | 34.13675 | -15.30882 | 35141 ft | 379 kts | 232° |
| 2026-05-03 22:30 | 34.10202 | -15.35673 | 35144 ft | 379 kts | 232° |
| 2026-05-03 22:31 | 34.06719 | -15.40457 | 35143 ft | 379 kts | 232° |
| 2026-05-03 22:31 | 34.04977 | -15.42855 | 35011 ft | 381 kts | 232° |
| 2026-05-03 22:31 | 34.03232 | -15.45253 | 34771 ft | 380 kts | 232° |
| 2026-05-03 22:31 | 34.01492 | -15.47643 | 34533 ft | 379 kts | 232° |
| 2026-05-03 22:32 | 33.99750 | -15.50031 | 34279 ft | 378 kts | 232° |
| 2026-05-03 22:32 | 33.98020 | -15.52399 | 34021 ft | 374 kts | 232° |
| 2026-05-03 22:32 | 33.96304 | -15.54745 | 33741 ft | 372 kts | 232° |
| 2026-05-03 22:32 | 33.94593 | -15.57083 | 33481 ft | 371 kts | 232° |
| 2026-05-03 22:33 | 33.92891 | -15.59411 | 33210 ft | 370 kts | 232° |
| 2026-05-03 22:33 | 33.91211 | -15.61707 | 32957 ft | 368 kts | 232° |
| 2026-05-03 22:33 | 33.89534 | -15.63996 | 32549 ft | 362 kts | 232° |
| 2026-05-03 22:33 | 33.87876 | -15.66257 | 32094 ft | 358 kts | 232° |
| 2026-05-03 22:34 | 33.86242 | -15.68490 | 31653 ft | 354 kts | 232° |
| 2026-05-03 22:34 | 33.84625 | -15.70702 | 31208 ft | 350 kts | 233° |
| 2026-05-03 22:34 | 33.83022 | -15.72889 | 30780 ft | 347 kts | 233° |
| 2026-05-03 22:34 | 33.81432 | -15.75053 | 30351 ft | 344 kts | 233° |
| 2026-05-03 22:35 | 33.79855 | -15.77196 | 29890 ft | 341 kts | 233° |
| 2026-05-03 22:35 | 33.78292 | -15.79319 | 29466 ft | 337 kts | 233° |
| 2026-05-03 22:35 | 33.76744 | -15.81417 | 29061 ft | 334 kts | 233° |
| 2026-05-03 22:35 | 33.75205 | -15.83500 | 28662 ft | 333 kts | 233° |
| 2026-05-03 22:36 | 33.73675 | -15.85574 | 28263 ft | 331 kts | 233° |
| 2026-05-03 22:36 | 33.72149 | -15.87646 | 27879 ft | 330 kts | 233° |
| 2026-05-03 22:36 | 33.70649 | -15.89682 | 27498 ft | 329 kts | 233° |
| 2026-05-03 22:36 | 33.69137 | -15.91732 | 27089 ft | 328 kts | 233° |
| 2026-05-03 22:37 | 33.67625 | -15.93768 | 26695 ft | 326 kts | 231° |
| 2026-05-03 22:37 | 33.65926 | -15.95565 | 26332 ft | 322 kts | 221° |
| 2026-05-03 22:37 | 33.64069 | -15.97010 | 25896 ft | 317 kts | 218° |
| 2026-05-03 22:37 | 33.62213 | -15.98422 | 25494 ft | 315 kts | 219° |
| 2026-05-03 22:38 | 33.60376 | -15.99834 | 25092 ft | 313 kts | 218° |
| 2026-05-03 22:38 | 33.58547 | -16.01243 | 24689 ft | 312 kts | 218° |
| 2026-05-03 22:38 | 33.56724 | -16.02646 | 24289 ft | 311 kts | 218° |
| 2026-05-03 22:38 | 33.54903 | -16.04046 | 23874 ft | 310 kts | 218° |
| 2026-05-03 22:39 | 33.53694 | -16.04977 | 23404 ft | 315 kts | 218° |
| 2026-05-03 22:39 | 33.51846 | -16.06396 | 22840 ft | 311 kts | 218° |
| 2026-05-03 22:39 | 33.50045 | -16.07767 | 22313 ft | 303 kts | 218° |
| 2026-05-03 22:39 | 33.48282 | -16.09110 | 21851 ft | 299 kts | 218° |
| 2026-05-03 22:40 | 33.46528 | -16.10448 | 21466 ft | 298 kts | 218° |
| 2026-05-03 22:40 | 33.44784 | -16.11780 | 21088 ft | 297 kts | 218° |
| 2026-05-03 22:40 | 33.43047 | -16.13105 | 20715 ft | 296 kts | 218° |
| 2026-05-03 22:40 | 33.41313 | -16.14430 | 20341 ft | 295 kts | 218° |
| 2026-05-03 22:41 | 33.39588 | -16.15747 | 19966 ft | 293 kts | 218° |
| 2026-05-03 22:41 | 33.37874 | -16.17054 | 19599 ft | 292 kts | 217° |
| 2026-05-03 22:41 | 33.36162 | -16.18360 | 19224 ft | 291 kts | 217° |
| 2026-05-03 22:41 | 33.34459 | -16.19656 | 18867 ft | 290 kts | 217° |
| 2026-05-03 22:42 | 33.32763 | -16.20947 | 18507 ft | 289 kts | 217° |
| 2026-05-03 22:42 | 33.31071 | -16.22239 | 18113 ft | 289 kts | 217° |
| 2026-05-03 22:42 | 33.29387 | -16.23523 | 17742 ft | 286 kts | 217° |
| 2026-05-03 22:42 | 33.27709 | -16.24798 | 17382 ft | 285 kts | 217° |
| 2026-05-03 22:43 | 33.26040 | -16.26066 | 17044 ft | 284 kts | 217° |
| 2026-05-03 22:43 | 33.24374 | -16.27330 | 16686 ft | 283 kts | 217° |
| 2026-05-03 22:43 | 33.22713 | -16.28590 | 16340 ft | 282 kts | 217° |
| 2026-05-03 22:43 | 33.21060 | -16.29844 | 15989 ft | 281 kts | 217° |
| 2026-05-03 22:44 | 33.19415 | -16.31093 | 15649 ft | 280 kts | 216° |
| 2026-05-03 22:44 | 33.17777 | -16.32338 | 15308 ft | 279 kts | 216° |
| 2026-05-03 22:44 | 33.16145 | -16.33575 | 14964 ft | 278 kts | 216° |
| 2026-05-03 22:44 | 33.14515 | -16.34808 | 14622 ft | 277 kts | 216° |
| 2026-05-03 22:45 | 33.12892 | -16.36036 | 14277 ft | 276 kts | 216° |
| 2026-05-03 22:45 | 33.11271 | -16.37261 | 13937 ft | 275 kts | 216° |
| 2026-05-03 22:45 | 33.09658 | -16.38480 | 13575 ft | 274 kts | 216° |
| 2026-05-03 22:45 | 33.08072 | -16.39681 | 13238 ft | 273 kts | 216° |
| 2026-05-03 22:46 | 33.06472 | -16.40893 | 12894 ft | 272 kts | 216° |
| 2026-05-03 22:46 | 33.04883 | -16.42098 | 12554 ft | 270 kts | 215° |
| 2026-05-03 22:46 | 33.03296 | -16.43300 | 12236 ft | 269 kts | 215° |
| 2026-05-03 22:46 | 33.01661 | -16.44538 | 11887 ft | 294 kts | 215° |
| 2026-05-03 22:47 | 32.99908 | -16.45865 | 11504 ft | 301 kts | 215° |
| 2026-05-03 22:47 | 32.98134 | -16.47202 | 11117 ft | 301 kts | 214° |
| 2026-05-03 22:47 | 32.96369 | -16.48527 | 10725 ft | 300 kts | 214° |
| 2026-05-03 22:47 | 32.94600 | -16.49854 | 10332 ft | 299 kts | 214° |
| 2026-05-03 22:48 | 32.92887 | -16.51176 | 9973 ft | 287 kts | 219° |
| 2026-05-03 22:48 | 32.91408 | -16.52712 | 9699 ft | 280 kts | 224° |
| 2026-05-03 22:48 | 32.90004 | -16.54217 | 9550 ft | 265 kts | 224° |
| 2026-05-03 22:48 | 32.88607 | -16.55709 | 8891 ft | 276 kts | 224° |
| 2026-05-03 22:49 | 32.87194 | -16.57216 | 8661 ft | 269 kts | 224° |
| 2026-05-03 22:49 | 32.85806 | -16.58694 | 8330 ft | 266 kts | 224° |
| 2026-05-03 22:49 | 32.84593 | -16.60321 | 7996 ft | 260 kts | 242° |
| 2026-05-03 22:49 | 32.84059 | -16.62323 | 7679 ft | 254 kts | 266° |
| 2026-05-03 22:50 | 32.84280 | -16.64371 | 7358 ft | 249 kts | 290° |
| 2026-05-03 22:50 | 32.85170 | -16.66084 | 7049 ft | 248 kts | 313° |
| 2026-05-03 22:50 | 32.86600 | -16.67239 | 6745 ft | 249 kts | 337° |
| 2026-05-03 22:50 | 32.88282 | -16.67585 | 6474 ft | 252 kts | 1° |
| 2026-05-03 22:51 | 32.89979 | -16.67048 | 6293 ft | 256 kts | 26° |
| 2026-05-03 22:51 | 32.91424 | -16.65790 | 6117 ft | 259 kts | 38° |
| 2026-05-03 22:51 | 32.92782 | -16.64382 | 5915 ft | 259 kts | 40° |
| 2026-05-03 22:51 | 32.94115 | -16.62949 | 5716 ft | 258 kts | 40° |
| 2026-05-03 22:52 | 32.95443 | -16.61514 | 5522 ft | 257 kts | 40° |
| 2026-05-03 22:52 | 32.96741 | -16.60052 | 5316 ft | 257 kts | 49° |
| 2026-05-03 22:52 | 32.97569 | -16.58178 | 5128 ft | 257 kts | 76° |
| 2026-05-03 22:52 | 32.97656 | -16.56068 | 4823 ft | 255 kts | 102° |
| 2026-05-03 22:53 | 32.96994 | -16.54144 | 4466 ft | 251 kts | 127° |
| 2026-05-03 22:53 | 32.95741 | -16.52737 | 4111 ft | 247 kts | 152° |
| 2026-05-03 22:53 | 32.94144 | -16.52075 | 3763 ft | 243 kts | 175° |
| 2026-05-03 22:53 | 32.92480 | -16.52240 | 3416 ft | 240 kts | 199° |
| 2026-05-03 22:54 | 32.91019 | -16.53171 | 3090 ft | 239 kts | 219° |
| 2026-05-03 22:54 | 32.89749 | -16.54428 | 3024 ft | 238 kts | 221° |
| 2026-05-03 22:54 | 32.88504 | -16.55737 | 3026 ft | 240 kts | 221° |
| 2026-05-03 22:54 | 32.87252 | -16.57050 | 3023 ft | 240 kts | 221° |
| 2026-05-03 22:55 | 32.85993 | -16.58353 | 3025 ft | 240 kts | 219° |
| 2026-05-03 22:55 | 32.84660 | -16.59548 | 3023 ft | 240 kts | 217° |
| 2026-05-03 22:55 | 32.83508 | -16.60961 | 3022 ft | 239 kts | 236° |
| 2026-05-03 22:55 | 32.82471 | -16.62497 | 3014 ft | 237 kts | 218° |
| 2026-05-03 22:56 | 32.81054 | -16.63488 | 3014 ft | 237 kts | 208° |
| 2026-05-03 22:56 | 32.79608 | -16.64351 | 3010 ft | 223 kts | 211° |
| 2026-05-03 22:56 | 32.78289 | -16.65265 | 3010 ft | 216 kts | 214° |
| 2026-05-03 22:56 | 32.77058 | -16.66180 | 3009 ft | 202 kts | 215° |
| 2026-05-03 22:57 | 32.75920 | -16.67066 | 3011 ft | 196 kts | 216° |
| 2026-05-03 22:57 | 32.74801 | -16.67961 | 3009 ft | 193 kts | 216° |
| 2026-05-03 22:57 | 32.73690 | -16.68859 | 3011 ft | 193 kts | 217° |
| 2026-05-03 22:57 | 32.72585 | -16.69757 | 3008 ft | 192 kts | 217° |
| 2026-05-03 22:58 | 32.71484 | -16.70655 | 3011 ft | 192 kts | 216° |
| 2026-05-03 22:58 | 32.70382 | -16.71556 | 3012 ft | 192 kts | 216° |
| 2026-05-03 22:58 | 32.69281 | -16.72459 | 3007 ft | 192 kts | 217° |
| 2026-05-03 22:58 | 32.68165 | -16.73330 | 3010 ft | 193 kts | 209° |
| 2026-05-03 22:59 | 32.66926 | -16.73959 | 3010 ft | 194 kts | 203° |
| 2026-05-03 22:59 | 32.65707 | -16.74479 | 3030 ft | 174 kts | 202° |
| 2026-05-03 22:59 | 32.64639 | -16.74915 | 3002 ft | 150 kts | 203° |
| 2026-05-03 22:59 | 32.63719 | -16.75290 | 2936 ft | 130 kts | 204° |
| 2026-05-03 23:00 | 32.62998 | -16.75917 | 2398 ft | 138 kts | 241° |
| 2026-05-03 23:00 | 32.62870 | -16.76991 | 2122 ft | 127 kts | 288° |
| 2026-05-03 23:00 | 32.63337 | -16.77792 | 1981 ft | 114 kts | 311° |
| 2026-05-03 23:00 | 32.63942 | -16.78443 | 1635 ft | 129 kts | 314° |
| 2026-05-03 23:01 | 32.64763 | -16.79033 | 1594 ft | 145 kts | 324° |
| 2026-05-03 23:01 | 32.65686 | -16.79640 | 1087 ft | 154 kts | 334° |
| 2026-05-03 23:01 | 32.66706 | -16.79829 | 837 ft | 145 kts | 2° |
| 2026-05-03 23:01 | 32.67679 | -16.79620 | 513 ft | 143 kts | 24° |
| 2026-05-03 23:02 | 32.68453 | -16.78970 | 328 ft | 133 kts | 41° |
| 2026-05-03 23:02 | 32.69095 | -16.78250 | 181 ft | 118 kts | 44° |
| 2026-05-03 23:02 | 32.69512 | -16.77769 | 176 ft | 41 kts | 45° |
| 2026-05-03 23:02 | 32.69687 | -16.77563 | 176 ft | 38 kts | 45° |
| 2026-05-03 23:03 | 32.69845 | -16.77381 | 176 ft | 25 kts | 44° |
| 2026-05-03 23:03 | 32.69942 | -16.77266 | 176 ft | 15 kts | 50° |
| 2026-05-03 23:03 | 32.69914 | -16.77185 | 176 ft | 11 kts | 169° |
| 2026-05-03 23:03 | 32.69841 | -16.77188 | 176 ft | 10 kts | 201° |
| 2026-05-03 23:04 | 32.69794 | -16.77235 | 176 ft | 8 kts | 226° |
| 2026-05-03 23:04 | 32.69756 | -16.77282 | 176 ft | 7 kts | 225° |
| 2026-05-03 23:04 | 32.69724 | -16.77321 | 176 ft | 6 kts | 226° |
| 2026-05-03 23:04 | 32.69679 | -16.77375 | 176 ft | 13 kts | 226° |
| 2026-05-03 23:05 | 32.69621 | -16.77449 | 176 ft | 12 kts | 226° |
| 2026-05-03 23:05 | 32.69565 | -16.77518 | 176 ft | 11 kts | 226° |
| 2026-05-03 23:05 | 32.69510 | -16.77588 | 176 ft | 11 kts | 227° |
| 2026-05-03 23:05 | 32.69459 | -16.77651 | 176 ft | 10 kts | 226° |
| 2026-05-03 23:06 | 32.69415 | -16.77701 | 176 ft | 7 kts | 205° |
| 2026-05-03 23:06 | 32.69377 | -16.77683 | 176 ft | 6 kts | 140° |
| 2026-05-03 23:06 | 32.69359 | -16.77664 | 176 ft | 1 kts | 137° |
| 2026-05-03 23:06 | 32.69357 | -16.77663 | 176 ft | 0 kts | 137° |